HE37 weather

Bilbeis Air Base
Bilbeis, Sharqia Governorate, Egypt

Public forecast

Using degrees Celsius for public forecast. Weather courtesy of forecast.io.

Closest aviation weather report (METAR) to Bilbeis Air Base

Closest report is Cairo International Airport, 19.3 nm (35.7 km) SSW. Retrieved 2019/10/14 21:00 UTC (33 minutes ago):

HECA 142100Z 03005KT 6000 NSC 26/20 Q1015

Closest aviation forecast (TAF) to Bilbeis Air Base

Closest forecast is Cairo International Airport, 19.3 nm (35.7 km) SSW. Retrieved 2019/10/14 18:45 UTC (3 hours ago):

TAF HECA 141700Z 1418/1524 35008KT 6000 NSC TEMPO 1500/1506 VRB03KT 4000BR